sensor_id;sensor_type;location;lat;lon;timestamp;pressure;altitude;pressure_sealevel;temperature;humidity
21449;BME280;10885;52.830;13.788;2024-02-23T06:06:55;98806.72;;;8.51;72.02
21449;BME280;10885;52.830;13.788;2024-02-23T06:11:58;98808.97;;;8.23;70.79
21449;BME280;10885;52.830;13.788;2024-02-23T06:17:01;98826.06;;;7.86;73.66
21449;BME280;10885;52.830;13.788;2024-02-23T06:22:04;98847.31;;;7.67;72.79
21449;BME280;10885;52.830;13.788;2024-02-23T06:27:06;98867.19;;;7.56;75.98
21449;BME280;10885;52.830;13.788;2024-02-23T06:32:09;98892.22;;;7.47;76.03
21449;BME280;10885;52.830;13.788;2024-02-23T06:37:12;98915.78;;;7.43;74.15
21449;BME280;10885;52.830;13.788;2024-02-23T06:42:16;98918.91;;;7.37;74.43
21449;BME280;10885;52.830;13.788;2024-02-23T06:47:18;98931.34;;;7.31;74.21
21449;BME280;10885;52.830;13.788;2024-02-23T06:52:21;98946.31;;;7.25;74.69
21449;BME280;10885;52.830;13.788;2024-02-23T06:57:25;98968.94;;;7.37;74.35
21449;BME280;10885;52.830;13.788;2024-02-23T07:02:28;98979.41;;;7.79;72.63
21449;BME280;10885;52.830;13.788;2024-02-23T07:07:34;98982.50;;;8.09;72.79
21449;BME280;10885;52.830;13.788;2024-02-23T07:12:37;98989.22;;;8.27;71.34
21449;BME280;10885;52.830;13.788;2024-02-23T07:17:39;99002.44;;;8.37;71.40
21449;BME280;10885;52.830;13.788;2024-02-23T07:22:45;98997.16;;;8.33;73.79
21449;BME280;10885;52.830;13.788;2024-02-23T07:27:49;99019.81;;;8.85;70.66
21449;BME280;10885;52.830;13.788;2024-02-23T07:32:51;99020.97;;;8.92;68.91
21449;BME280;10885;52.830;13.788;2024-02-23T07:37:55;99025.75;;;9.05;69.36
21449;BME280;10885;52.830;13.788;2024-02-23T07:42:58;99043.06;;;9.32;71.00
21449;BME280;10885;52.830;13.788;2024-02-23T07:48:00;99043.91;;;9.52;67.74
21449;BME280;10885;52.830;13.788;2024-02-23T07:53:03;99043.00;;;9.30;69.13
21449;BME280;10885;52.830;13.788;2024-02-23T07:58:06;99046.59;;;8.95;69.70
21449;BME280;10885;52.830;13.788;2024-02-23T08:03:09;99049.38;;;8.80;70.50
21449;BME280;10885;52.830;13.788;2024-02-23T08:08:13;99064.59;;;8.79;71.51
21449;BME280;10885;52.830;13.788;2024-02-23T08:13:16;99073.38;;;9.05;70.07
21449;BME280;10885;52.830;13.788;2024-02-23T08:18:20;99095.41;;;8.83;70.09
21449;BME280;10885;52.830;13.788;2024-02-23T08:23:26;99085.88;;;9.59;69.12
21449;BME280;10885;52.830;13.788;2024-02-23T08:28:29;99105.63;;;11.19;65.18
21449;BME280;10885;52.830;13.788;2024-02-23T08:33:31;99105.16;;;12.62;61.79
21449;BME280;10885;52.830;13.788;2024-02-23T08:38:34;99106.06;;;13.25;62.00
21449;BME280;10885;52.830;13.788;2024-02-23T19:47:48;99493.88;;;5.64;66.63
21449;BME280;10885;52.830;13.788;2024-02-23T19:52:51;99501.50;;;5.50;67.31
21449;BME280;10885;52.830;13.788;2024-02-23T19:57:53;99486.75;;;5.45;67.42
21449;BME280;10885;52.830;13.788;2024-02-23T20:02:57;99505.97;;;5.41;67.55
21449;BME280;10885;52.830;13.788;2024-02-23T20:08:00;99511.84;;;5.40;68.10
21449;BME280;10885;52.830;13.788;2024-02-23T20:13:03;99509.78;;;5.34;67.25
21449;BME280;10885;52.830;13.788;2024-02-23T20:18:06;99514.56;;;5.30;67.49
21449;BME280;10885;52.830;13.788;2024-02-23T20:23:09;99516.38;;;5.19;67.93
21449;BME280;10885;52.830;13.788;2024-02-23T20:28:11;99530.63;;;5.17;68.79
21449;BME280;10885;52.830;13.788;2024-02-23T20:33:14;99536.06;;;5.10;68.46
21449;BME280;10885;52.830;13.788;2024-02-23T20:38:17;99555.94;;;5.04;68.62
21449;BME280;10885;52.830;13.788;2024-02-23T20:43:19;99561.25;;;5.07;68.87
21449;BME280;10885;52.830;13.788;2024-02-23T20:48:22;99571.38;;;5.07;68.49
21449;BME280;10885;52.830;13.788;2024-02-23T20:53:25;99564.19;;;5.13;68.80
21449;BME280;10885;52.830;13.788;2024-02-23T20:58:27;99572.47;;;5.10;68.36
21449;BME280;10885;52.830;13.788;2024-02-23T21:03:30;99559.56;;;5.07;68.48
21449;BME280;10885;52.830;13.788;2024-02-23T21:08:33;99563.31;;;5.12;68.11
21449;BME280;10885;52.830;13.788;2024-02-23T21:13:36;99564.66;;;5.07;68.81
21449;BME280;10885;52.830;13.788;2024-02-23T21:18:39;99551.84;;;5.06;69.11
21449;BME280;10885;52.830;13.788;2024-02-23T21:23:41;99547.34;;;5.02;69.10
21449;BME280;10885;52.830;13.788;2024-02-23T21:28:44;99529.31;;;4.97;69.16
21449;BME280;10885;52.830;13.788;2024-02-23T21:33:47;99529.78;;;4.91;68.94
21449;BME280;10885;52.830;13.788;2024-02-23T21:38:55;99517.16;;;4.79;69.25
21449;BME280;10885;52.830;13.788;2024-02-23T21:43:57;99514.78;;;4.69;70.41
21449;BME280;10885;52.830;13.788;2024-02-23T21:49:00;99510.19;;;4.64;70.43
21449;BME280;10885;52.830;13.788;2024-02-23T21:54:05;99514.84;;;4.57;70.53
21449;BME280;10885;52.830;13.788;2024-02-23T21:59:07;99522.06;;;4.39;71.02
21449;BME280;10885;52.830;13.788;2024-02-23T22:04:10;99522.47;;;4.21;72.25
21449;BME280;10885;52.830;13.788;2024-02-23T22:09:13;99539.44;;;4.10;72.74
21449;BME280;10885;52.830;13.788;2024-02-23T22:14:15;99541.34;;;4.01;73.18
21449;BME280;10885;52.830;13.788;2024-02-23T22:19:18;99556.41;;;3.99;73.40
21449;BME280;10885;52.830;13.788;2024-02-23T22:24:21;99553.00;;;3.98;72.97
21449;BME280;10885;52.830;13.788;2024-02-23T22:29:25;99561.38;;;3.86;73.82
21449;BME280;10885;52.830;13.788;2024-02-23T22:34:28;99566.31;;;3.72;74.46
